Time;durP1;ratioP1;P1;durP2;ratioP2;P2;SDS_P1;SDS_P2;PMS_P1;PMS_P2;Temp;Humidity;BMP_temperature;BMP_pressure;BME280_temperature;BME280_humidity;BME280_pressure;Samples;Min_cycle;Max_cycle;Signal;HPM_P1;HPM_P2
2023/11/12 00:00:56;;;;;;;0.50;0.50;;;;;;;9.19;100.00;100802.53;2594431;22;20655;-71
2023/11/12 00:01:56;;;;;;;0.90;0.60;;;;;;;9.17;100.00;100810.47;2594877;22;20148;-72
2023/11/12 00:02:57;;;;;;;0.93;0.50;;;;;;;9.22;100.00;100812.00;2595308;22;20638;-71
2023/11/12 00:03:57;;;;;;;1.00;0.70;;;;;;;9.24;100.00;100806.81;2595531;22;20172;-71
2023/11/12 00:04:58;;;;;;;1.27;0.40;;;;;;;9.22;100.00;100817.53;2595126;22;20150;-72
2023/11/12 00:05:58;;;;;;;1.03;0.50;;;;;;;9.32;100.00;100811.03;2595481;22;20148;-72
2023/11/12 00:06:59;;;;;;;0.60;0.40;;;;;;;9.23;100.00;100794.97;2594584;22;20508;-72
2023/11/12 00:07:59;;;;;;;0.70;0.53;;;;;;;9.31;100.00;100807.47;2594784;22;20152;-71
2023/11/12 00:09:04;;;;;;;0.73;0.50;;;;;;;9.18;100.00;100789.91;2595323;22;20553;-71
2023/11/12 00:10:06;;;;;;;2.10;0.40;;;;;;;8.56;100.00;100698.47;2595622;22;20221;-71
2023/11/12 00:11:07;;;;;;;0.80;0.40;;;;;;;9.35;100.00;100813.75;2594062;22;20369;-71
2023/11/12 00:12:08;;;;;;;0.60;0.50;;;;;;;9.39;100.00;100813.69;2594086;22;20374;-71
2023/11/12 00:13:09;;;;;;;0.70;0.50;;;;;;;9.38;100.00;100814.91;2595216;22;20232;-72
2023/11/12 00:14:09;;;;;;;2.00;0.60;;;;;;;9.37;100.00;100810.56;2595518;22;20459;-72
2023/11/12 00:15:10;;;;;;;1.03;0.50;;;;;;;9.38;100.00;100818.41;2595224;22;20552;-72
2023/11/12 00:16:10;;;;;;;1.37;0.57;;;;;;;9.40;100.00;100823.53;2595573;22;20156;-72
2023/11/12 00:17:16;;;;;;;0.40;0.37;;;;;;;9.45;100.00;100818.34;2594864;22;20153;-72
2023/11/12 00:18:16;;;;;;;0.73;0.50;;;;;;;9.50;100.00;100839.19;2581914;23;20676;-72
2023/11/12 00:19:17;;;;;;;1.33;0.50;;;;;;;9.51;100.00;100819.41;2581954;23;20947;-72
2023/11/12 00:20:17;;;;;;;1.37;0.60;;;;;;;9.56;100.00;100818.94;2595085;22;20152;-72
2023/11/12 00:21:20;;;;;;;2.50;0.60;;;;;;;9.25;100.00;100773.22;2594611;22;20150;-72
2023/11/12 00:22:21;;;;;;;0.73;0.50;;;;;;;9.48;100.00;100820.25;2593734;22;20154;-72
2023/11/12 00:23:24;;;;;;;3.80;0.63;;;;;;;8.80;100.00;100716.66;2595446;22;20384;-72
2023/11/12 00:24:24;;;;;;;0.60;0.43;;;;;;;9.48;100.00;100819.47;2595048;22;20158;-72
2023/11/12 00:25:24;;;;;;;0.87;0.50;;;;;;;9.41;100.00;100814.03;2595121;22;20532;-72
2023/11/12 00:26:25;;;;;;;3.90;0.60;;;;;;;9.39;100.00;100819.97;2594650;22;20261;-72
2023/11/12 00:27:27;;;;;;;1.37;0.60;;;;;;;9.39;100.00;100825.50;2595336;22;20260;-72
2023/11/12 00:28:27;;;;;;;0.77;0.40;;;;;;;9.40;100.00;100824.34;2595430;22;20476;-71
2023/11/12 00:29:28;;;;;;;0.83;0.50;;;;;;;9.37;100.00;100819.63;2595269;22;20385;-72
2023/11/12 00:30:28;;;;;;;0.60;0.50;;;;;;;9.32;100.00;100809.03;2595186;22;20483;-72
2023/11/12 00:31:29;;;;;;;1.00;0.50;;;;;;;9.34;100.00;100817.72;2595188;22;20200;-72
2023/11/12 00:32:30;;;;;;;0.43;0.40;;;;;;;9.34;100.00;100822.47;2593622;22;20150;-72
2023/11/12 00:33:30;;;;;;;0.87;0.50;;;;;;;9.29;100.00;100817.41;2595451;22;20409;-72
2023/11/12 00:34:31;;;;;;;0.40;0.40;;;;;;;9.20;100.00;100815.16;2595181;22;20157;-72
2023/11/12 00:35:31;;;;;;;0.30;0.30;;;;;;;9.26;100.00;100823.75;2595246;22;20560;-72
2023/11/12 00:36:31;;;;;;;0.90;0.47;;;;;;;9.24;100.00;100820.63;2593838;22;20285;-72
2023/11/12 00:37:32;;;;;;;0.73;0.37;;;;;;;9.19;100.00;100824.66;2595435;22;20598;-72
2023/11/12 00:38:33;;;;;;;1.27;0.70;;;;;;;9.09;100.00;100838.63;2594970;22;20186;-72
2023/11/12 00:39:34;;;;;;;1.17;0.67;;;;;;;9.09;100.00;100831.13;2595238;22;20154;-72
2023/11/12 00:40:34;;;;;;;0.57;0.40;;;;;;;8.90;100.00;100797.84;2595156;22;20159;-72
2023/11/12 00:41:37;;;;;;;1.13;0.67;;;;;;;9.04;100.00;100822.50;2595252;22;20151;-72
2023/11/12 00:42:39;;;;;;;1.30;0.77;;;;;;;9.02;100.00;100828.44;2593904;22;20158;-72
2023/11/12 00:43:40;;;;;;;0.87;0.60;;;;;;;8.98;100.00;100829.72;2595532;22;20379;-72
2023/11/12 00:44:41;;;;;;;0.82;0.50;;;;;;;8.55;100.00;100777.00;2594929;22;20535;-72
2023/11/12 00:45:41;;;;;;;0.63;0.60;;;;;;;8.91;100.00;100838.88;2595438;22;20264;-72
2023/11/12 00:46:42;;;;;;;1.70;0.77;;;;;;;8.97;100.00;100830.91;2594426;22;20589;-72
2023/11/12 00:47:43;;;;;;;1.10;0.60;;;;;;;9.00;100.00;100830.88;2595319;22;20210;-72
2023/11/12 00:48:44;;;;;;;0.70;0.67;;;;;;;8.95;100.00;100828.56;2594863;22;20174;-72
2023/11/12 00:49:44;;;;;;;0.60;0.43;;;;;;;8.69;100.00;100782.34;2581820;23;20150;-72
2023/11/12 00:50:45;;;;;;;1.17;0.50;;;;;;;8.98;100.00;100835.25;2581634;23;20638;-72
2023/11/12 00:51:46;;;;;;;1.10;0.60;;;;;;;8.92;100.00;100836.91;2593572;22;20187;-72
2023/11/12 00:52:47;;;;;;;1.00;0.60;;;;;;;8.97;100.00;100828.91;2594881;22;20154;-72
2023/11/12 00:53:47;;;;;;;0.60;0.50;;;;;;;8.94;100.00;100826.22;2594506;22;20387;-72
2023/11/12 00:54:48;;;;;;;0.53;0.40;;;;;;;8.99;100.00;100834.84;2595128;22;20478;-72
2023/11/12 00:55:48;;;;;;;0.80;0.60;;;;;;;9.04;100.00;100830.81;2595174;22;20178;-72
2023/11/12 00:56:48;;;;;;;1.00;0.40;;;;;;;9.03;100.00;100830.00;2594308;22;20487;-72
2023/11/12 00:57:49;;;;;;;0.60;0.50;;;;;;;8.76;100.00;100785.00;2595235;22;20381;-72
2023/11/12 00:58:49;;;;;;;1.00;0.67;;;;;;;9.04;100.00;100836.34;2594976;22;20500;-72
2023/11/12 00:59:50;;;;;;;0.93;0.60;;;;;;;9.10;100.00;100831.91;2595098;22;20160;-72
2023/11/12 01:00:51;;;;;;;1.23;0.60;;;;;;;9.05;100.00;100829.59;2595063;22;20499;-72
2023/11/12 01:01:51;;;;;;;0.73;0.60;;;;;;;9.07;100.00;100835.50;2594562;22;20229;-72
2023/11/12 01:02:52;;;;;;;0.70;0.60;;;;;;;9.10;100.00;100834.66;2594949;22;20890;-72
2023/11/12 01:03:52;;;;;;;0.80;0.50;;;;;;;9.12;100.00;100830.28;2594473;22;20156;-72
2023/11/12 01:04:53;;;;;;;0.90;0.50;;;;;;;8.29;100.00;100705.16;2594650;22;20236;-72
2023/11/12 01:05:53;;;;;;;0.50;0.40;;;;;;;8.90;100.00;100801.38;2594585;22;20147;-72
2023/11/12 01:06:54;;;;;;;0.60;0.40;;;;;;;9.09;100.00;100836.66;2594511;22;20209;-72
2023/11/12 01:07:54;;;;;;;1.13;0.60;;;;;;;9.06;100.00;100843.00;2595292;22;20678;-72
2023/11/12 01:08:55;;;;;;;2.13;0.60;;;;;;;9.01;100.00;100843.47;2594963;22;20154;-72
2023/11/12 01:09:55;;;;;;;1.17;0.60;;;;;;;9.00;100.00;100841.91;2595195;22;20161;-72
2023/11/12 01:10:56;;;;;;;0.63;0.50;;;;;;;8.35;100.00;100739.41;2594822;22;20171;-72
2023/11/12 01:11:57;;;;;;;0.60;0.40;;;;;;;8.92;100.00;100836.91;2594531;22;20257;-72
2023/11/12 01:12:59;;;;;;;0.83;0.60;;;;;;;8.84;100.00;100844.50;2595098;22;20386;-72
2023/11/12 01:14:00;;;;;;;0.40;0.40;;;;;;;8.73;100.00;100841.13;2595228;22;20172;-72
2023/11/12 01:15:01;;;;;;;0.70;0.50;;;;;;;8.70;100.00;100839.16;2594097;22;20388;-72
2023/11/12 01:16:01;;;;;;;0.63;0.40;;;;;;;8.65;100.00;100842.38;2595306;22;20198;-72
2023/11/12 01:17:02;;;;;;;0.90;0.60;;;;;;;8.67;100.00;100845.50;2594326;22;20154;-72
2023/11/12 01:18:03;;;;;;;0.70;0.50;;;;;;;8.65;100.00;100838.81;2595131;22;20671;-72
2023/11/12 01:19:04;;;;;;;1.00;0.70;;;;;;;8.49;100.00;100824.81;2594895;22;20150;-72
2023/11/12 01:20:06;;;;;;;0.87;0.67;;;;;;;8.60;100.00;100848.38;2594687;22;20603;-72
2023/11/12 01:21:07;;;;;;;0.40;0.40;;;;;;;8.66;100.00;100840.41;2595088;22;20853;-72
2023/11/12 01:22:07;;;;;;;0.60;0.50;;;;;;;8.69;100.00;100847.84;2594599;22;20763;-72
2023/11/12 01:23:09;;;;;;;0.60;0.60;;;;;;;8.69;100.00;100843.13;2594745;22;20150;-72
2023/11/12 01:24:09;;;;;;;0.40;0.40;;;;;;;8.73;100.00;100829.25;2594900;22;20610;-72
2023/11/12 01:25:10;;;;;;;1.00;0.50;;;;;;;8.73;100.00;100830.06;2593854;22;20725;-72
2023/11/12 01:26:10;;;;;;;0.70;0.50;;;;;;;8.69;100.00;100823.78;2595071;22;20134;-72
2023/11/12 01:27:11;;;;;;;5.63;0.80;;;;;;;8.64;100.00;100826.22;2594619;22;20151;-72
2023/11/12 01:28:11;;;;;;;0.53;0.50;;;;;;;8.70;100.00;100824.56;2595249;22;20487;-72
2023/11/12 01:29:12;;;;;;;0.80;0.40;;;;;;;8.68;100.00;100829.72;2595004;22;20143;-72
2023/11/12 01:30:12;;;;;;;0.60;0.30;;;;;;;8.65;100.00;100831.34;2595199;22;20157;-71
2023/11/12 01:31:13;;;;;;;0.63;0.47;;;;;;;8.67;100.00;100823.41;2594993;22;20145;-71
2023/11/12 01:32:14;;;;;;;1.00;0.60;;;;;;;8.63;100.00;100828.22;2594468;22;20154;-71
2023/11/12 01:33:14;;;;;;;0.63;0.30;;;;;;;8.61;100.00;100833.34;2594803;22;20375;-71
2023/11/12 01:34:15;;;;;;;0.93;0.43;;;;;;;7.92;100.00;100721.75;2594783;22;20212;-71
2023/11/12 01:35:15;;;;;;;1.23;0.50;;;;;;;8.59;100.00;100833.00;2594879;22;20603;-71
2023/11/12 01:36:16;;;;;;;0.30;0.30;;;;;;;8.60;100.00;100833.75;2593717;22;20200;-71
2023/11/12 01:37:17;;;;;;;1.17;0.40;;;;;;;8.11;100.00;100765.31;2594850;22;20160;-71
2023/11/12 01:38:17;;;;;;;0.53;0.40;;;;;;;8.60;100.00;100837.31;2594957;22;20178;-71
2023/11/12 01:39:18;;;;;;;0.57;0.50;;;;;;;8.58;100.00;100834.19;2594807;22;20229;-71
2023/11/12 01:40:20;;;;;;;1.27;0.60;;;;;;;7.60;100.00;100675.25;2594789;22;20148;-71
2023/11/12 01:41:20;;;;;;;0.30;0.30;;;;;;;8.48;100.00;100814.97;2594939;22;20555;-71
2023/11/12 01:42:20;;;;;;;0.83;0.50;;;;;;;8.65;100.00;100842.38;2594416;22;20398;-71
2023/11/12 01:43:21;;;;;;;0.53;0.47;;;;;;;8.67;100.00;100853.78;2595108;22;20149;-71
2023/11/12 01:44:21;;;;;;;0.37;0.37;;;;;;;8.68;100.00;100847.09;2594921;22;20288;-71
2023/11/12 01:45:22;;;;;;;0.40;0.30;;;;;;;8.67;100.00;100856.56;2594972;22;20149;-72
2023/11/12 01:46:22;;;;;;;0.90;0.40;;;;;;;8.71;100.00;100860.06;2593384;22;20190;-71
2023/11/12 01:47:23;;;;;;;0.33;0.30;;;;;;;7.88;100.00;100710.78;2595044;22;20501;-71
2023/11/12 01:48:24;;;;;;;0.40;0.40;;;;;;;8.81;100.00;100861.16;2594348;22;20191;-71
2023/11/12 01:49:24;;;;;;;0.57;0.33;;;;;;;8.81;100.00;100861.16;2595124;22;20175;-71
2023/11/12 01:50:25;;;;;;;4.07;0.50;;;;;;;8.85;100.00;100872.91;2595048;22;20163;-71
2023/11/12 01:51:28;;;;;;;0.53;0.50;;;;;;;8.06;100.00;100754.72;2595211;22;20226;-71
2023/11/12 01:52:30;;;;;;;0.83;0.40;;;;;;;8.83;100.00;100853.22;2594207;22;20157;-72
2023/11/12 01:53:34;;;;;;;0.40;0.30;;;;;;;8.70;100.00;100819.81;2594951;22;20379;-71
2023/11/12 01:54:39;;;;;;;0.60;0.50;;;;;;;8.99;100.00;100869.97;2594718;22;20389;-71
2023/11/12 01:55:39;;;;;;;1.90;0.37;;;;;;;9.05;100.00;100865.53;2595303;22;20727;-72
2023/11/12 01:56:40;;;;;;;0.80;0.40;;;;;;;9.07;100.00;100863.94;2593417;22;20458;-71
2023/11/12 01:57:43;;;;;;;0.60;0.30;;;;;;;9.10;100.00;100862.31;2594906;22;20153;-71
2023/11/12 01:58:44;;;;;;;0.60;0.40;;;;;;;8.89;100.00;100824.72;2594724;22;20190;-71
2023/11/12 01:59:45;;;;;;;1.53;0.50;;;;;;;9.16;100.00;100846.81;2594814;22;20377;-72
2023/11/12 02:00:46;;;;;;;0.67;0.40;;;;;;;8.94;100.00;100834.50;2594679;22;20395;-71
2023/11/12 02:01:50;;;;;;;1.33;0.70;;;;;;;9.12;100.00;100843.34;2594430;22;20649;-72
2023/11/12 02:02:52;;;;;;;0.33;0.33;;;;;;;8.30;100.00;100726.06;2593842;22;20379;-71
2023/11/12 02:03:53;;;;;;;0.60;0.40;;;;;;;9.07;100.00;100833.50;2594851;22;20860;-72
2023/11/12 02:04:54;;;;;;;0.60;0.40;;;;;;;9.11;100.00;100837.03;2594776;22;20442;-72
2023/11/12 02:05:55;;;;;;;0.40;0.40;;;;;;;8.33;100.00;100711.41;2595191;22;20755;-72
2023/11/12 02:06:59;;;;;;;3.13;0.43;;;;;;;9.09;100.00;100831.13;2593960;22;20151;-72
2023/11/12 02:08:03;;;;;;;0.30;0.30;;;;;;;9.16;100.00;100836.56;2594121;22;20384;-72
2023/11/12 02:09:05;;;;;;;0.53;0.40;;;;;;;9.17;100.00;100848.41;2594654;22;20691;-72
2023/11/12 02:10:09;;;;;;;0.40;0.40;;;;;;;9.10;100.00;100824.41;2595065;22;20381;-72
2023/11/12 02:11:13;;;;;;;0.30;0.20;;;;;;;9.14;100.00;100838.16;2581236;23;20390;-71
2023/11/12 02:12:14;;;;;;;0.80;0.40;;;;;;;9.08;100.00;100845.38;2581442;22;20382;-71
2023/11/12 02:13:17;;;;;;;0.70;0.50;;;;;;;9.05;100.00;100838.69;2594861;22;20388;-71
2023/11/12 02:14:20;;;;;;;0.50;0.37;;;;;;;9.06;100.00;100844.97;2594880;22;20234;-71
2023/11/12 02:15:21;;;;;;;0.67;0.50;;;;;;;9.07;100.00;100841.81;2594754;22;20463;-71
2023/11/12 02:16:21;;;;;;;0.83;0.40;;;;;;;8.35;100.00;100733.91;2594161;22;20435;-72
2023/11/12 02:17:22;;;;;;;0.70;0.40;;;;;;;8.92;100.00;100823.09;2594475;22;20151;-71
2023/11/12 02:18:22;;;;;;;0.50;0.33;;;;;;;9.09;100.00;100847.72;2593673;22;20176;-71
2023/11/12 02:19:27;;;;;;;0.60;0.40;;;;;;;9.04;100.00;100837.13;2594972;22;20159;-71
2023/11/12 02:20:28;;;;;;;0.63;0.40;;;;;;;8.37;100.00;100734.25;2595173;22;20246;-72
2023/11/12 02:21:32;;;;;;;2.57;0.50;;;;;;;8.61;100.00;100780.88;2594826;22;20439;-72
2023/11/12 02:22:36;;;;;;;0.20;0.20;;;;;;;9.08;100.00;100859.97;2594023;22;20158;-72
2023/11/12 02:23:38;;;;;;;0.50;0.40;;;;;;;9.06;100.00;100862.38;2594776;22;20377;-72
2023/11/12 02:24:38;;;;;;;0.70;0.40;;;;;;;9.09;100.00;100860.75;2594418;22;20935;-71
2023/11/12 02:25:39;;;;;;;0.80;0.63;;;;;;;9.12;100.00;100859.94;2594931;22;20779;-71
2023/11/12 02:26:39;;;;;;;0.47;0.40;;;;;;;9.11;100.00;100859.13;2594035;22;20152;-71
2023/11/12 02:27:40;;;;;;;0.87;0.50;;;;;;;9.04;100.00;100875.84;2595002;22;20151;-72
2023/11/12 02:28:41;;;;;;;0.53;0.40;;;;;;;9.02;100.00;100863.63;2593811;22;20156;-71
2023/11/12 02:29:48;;;;;;;0.63;0.50;;;;;;;8.29;100.00;100763.13;2581238;23;20207;-72
2023/11/12 02:30:53;;;;;;;1.03;0.60;;;;;;;8.79;100.00;100838.66;2582729;22;20148;-72
2023/11/12 02:31:53;;;;;;;0.70;0.50;;;;;;;8.91;100.00;100851.94;2593784;22;20377;-72
2023/11/12 02:32:54;;;;;;;0.50;0.37;;;;;;;8.88;100.00;100850.00;2594640;22;20463;-72
2023/11/12 02:33:54;;;;;;;1.00;0.50;;;;;;;8.81;100.00;100856.38;2594987;22;20157;-72
2023/11/12 02:34:55;;;;;;;0.43;0.30;;;;;;;8.76;100.00;100851.31;2594363;22;20178;-71
2023/11/12 02:35:56;;;;;;;1.33;0.43;;;;;;;8.69;100.00;100856.16;2594884;22;20616;-72
2023/11/12 02:36:57;;;;;;;0.40;0.40;;;;;;;8.69;100.00;100854.19;2593972;22;20513;-72
2023/11/12 02:37:57;;;;;;;0.50;0.50;;;;;;;8.73;100.00;100856.91;2594828;22;20144;-72
2023/11/12 02:38:57;;;;;;;0.63;0.40;;;;;;;8.21;100.00;100783.75;2594332;22;20250;-72
2023/11/12 02:39:58;;;;;;;0.37;0.30;;;;;;;8.65;100.00;100850.69;2594254;22;20228;-72
2023/11/12 02:41:01;;;;;;;0.40;0.40;;;;;;;8.60;100.00;100850.34;2594753;22;20158;-72
2023/11/12 02:42:01;;;;;;;1.37;0.47;;;;;;;8.58;100.00;100844.44;2594246;22;20147;-72
2023/11/12 02:43:03;;;;;;;0.67;0.43;;;;;;;8.23;100.00;100825.53;2594651;22;20411;-72
2023/11/12 02:44:07;;;;;;;0.90;0.47;;;;;;;8.46;100.00;100845.78;2594854;22;20151;-72
2023/11/12 02:45:10;;;;;;;0.70;0.40;;;;;;;8.45;100.00;100849.72;2594659;22;20377;-72
2023/11/12 02:46:13;;;;;;;0.67;0.50;;;;;;;8.48;100.00;100842.59;2594356;22;20439;-72
2023/11/12 02:47:14;;;;;;;0.33;0.33;;;;;;;8.50;100.00;100843.00;2594724;22;20392;-72
2023/11/12 02:48:14;;;;;;;0.67;0.30;;;;;;;8.51;100.00;100841.78;2594818;22;20396;-71
2023/11/12 02:49:46;;;;;;;0.70;0.50;;;;;;;8.48;100.00;100846.16;2594805;22;20205;-71
2023/11/12 02:50:47;;;;;;;0.50;0.50;;;;;;;8.50;100.00;100852.03;2594658;22;20221;-71
2023/11/12 02:51:49;;;;;;;1.00;0.50;;;;;;;7.95;100.00;100782.44;2594255;22;20864;-71
2023/11/12 02:52:49;;;;;;;0.93;0.50;;;;;;;8.08;100.00;100807.53;2594688;22;20670;-71
2023/11/12 02:53:49;;;;;;;1.80;0.40;;;;;;;8.43;100.00;100856.84;2594901;22;20765;-72
2023/11/12 02:54:50;;;;;;;0.70;0.60;;;;;;;8.32;100.00;100836.88;2594677;22;20154;-72
2023/11/12 02:55:50;;;;;;;3.53;0.40;;;;;;;8.48;100.00;100856.41;2594938;22;20525;-71
2023/11/12 02:56:51;;;;;;;0.70;0.40;;;;;;;8.46;100.00;100853.28;2593977;22;20147;-71
2023/11/12 02:57:51;;;;;;;0.33;0.30;;;;;;;8.48;100.00;100851.69;2594756;22;20147;-71
2023/11/12 02:58:52;;;;;;;0.77;0.30;;;;;;;8.51;100.00;100866.66;2594733;22;20151;-71
2023/11/12 02:59:53;;;;;;;0.20;0.20;;;;;;;7.99;100.00;100780.41;2594106;22;20151;-71
2023/11/12 03:00:54;;;;;;;2.17;0.40;;;;;;;8.55;100.00;100859.06;2593616;22;20151;-71
2023/11/12 03:01:54;;;;;;;1.17;0.60;;;;;;;7.58;100.00;100715.47;2594365;22;20369;-71
2023/11/12 03:03:00;;;;;;;1.13;0.43;;;;;;;8.52;100.00;100855.19;2594611;22;20155;-71
2023/11/12 03:04:00;;;;;;;0.60;0.40;;;;;;;8.55;100.00;100850.78;2594885;22;20135;-72
2023/11/12 03:05:01;;;;;;;0.60;0.40;;;;;;;8.53;100.00;100856.75;2594488;22;20383;-72
2023/11/12 03:06:01;;;;;;;0.30;0.30;;;;;;;7.84;100.00;100751.41;2594829;22;20152;-71
2023/11/12 03:07:03;;;;;;;1.17;0.40;;;;;;;8.51;100.00;100859.13;2594111;22;20198;-72
2023/11/12 03:08:04;;;;;;;0.40;0.30;;;;;;;8.55;100.00;100854.34;2595071;22;20204;-72
2023/11/12 03:09:04;;;;;;;0.70;0.50;;;;;;;8.52;100.00;100849.66;2594675;22;20860;-72
2023/11/12 03:10:08;;;;;;;0.63;0.30;;;;;;;8.46;100.00;100851.28;2594914;22;20627;-71
2023/11/12 03:11:12;;;;;;;0.30;0.20;;;;;;;8.56;100.00;100850.38;2593810;22;20155;-71
2023/11/12 03:12:12;;;;;;;0.40;0.40;;;;;;;7.98;100.00;100767.03;2594077;22;20419;-71
2023/11/12 03:13:13;;;;;;;0.30;0.30;;;;;;;8.60;100.00;100862.19;2594599;22;20457;-72
2023/11/12 03:14:14;;;;;;;0.63;0.30;;;;;;;8.55;100.00;100859.88;2594310;22;20151;-71
2023/11/12 03:15:14;;;;;;;1.53;0.40;;;;;;;8.60;100.00;100862.19;2594422;22;20168;-71
2023/11/12 03:16:15;;;;;;;0.90;0.57;;;;;;;8.54;100.00;100861.06;2594591;22;20401;-71
2023/11/12 03:17:15;;;;;;;0.30;0.30;;;;;;;8.50;100.00;100856.81;2594578;22;20506;-71
2023/11/12 03:18:15;;;;;;;0.43;0.30;;;;;;;8.51;100.00;100872.94;2594618;22;20261;-71
2023/11/12 03:19:16;;;;;;;0.70;0.40;;;;;;;7.75;100.00;100764.13;2594641;22;20151;-71
2023/11/12 03:20:17;;;;;;;0.40;0.40;;;;;;;8.48;100.00;100861.94;2594313;22;20535;-71
2023/11/12 03:21:18;;;;;;;0.60;0.40;;;;;;;8.44;100.00;100870.25;2594060;22;20223;-71
2023/11/12 03:22:18;;;;;;;0.40;0.37;;;;;;;8.48;100.00;100864.69;2593565;22;20147;-71
2023/11/12 03:23:19;;;;;;;0.40;0.37;;;;;;;8.49;100.00;100864.28;2594666;22;20550;-71
2023/11/12 03:24:19;;;;;;;1.23;0.43;;;;;;;7.81;100.00;100759.72;2594663;22;20175;-71
2023/11/12 03:25:20;;;;;;;0.33;0.30;;;;;;;8.53;100.00;100861.47;2594486;22;20191;-72
2023/11/12 03:26:21;;;;;;;0.63;0.40;;;;;;;8.32;100.00;100845.16;2594111;22;20136;-71
2023/11/12 03:27:21;;;;;;;2.20;0.50;;;;;;;8.42;100.00;100875.44;2594732;22;20176;-71
2023/11/12 03:28:22;;;;;;;0.30;0.30;;;;;;;8.45;100.00;100866.31;2594341;22;20373;-71
2023/11/12 03:29:25;;;;;;;0.53;0.30;;;;;;;8.47;100.00;100877.75;2594584;22;20148;-71
2023/11/12 03:30:26;;;;;;;0.90;0.30;;;;;;;8.48;100.00;100881.25;2594546;22;20159;-72
2023/11/12 03:31:26;;;;;;;0.57;0.40;;;;;;;8.48;100.00;100875.75;2594974;22;20384;-71
2023/11/12 03:32:27;;;;;;;0.60;0.40;;;;;;;8.47;100.00;100886.03;2593288;22;20190;-71
2023/11/12 03:33:28;;;;;;;0.40;0.40;;;;;;;8.53;100.00;100881.63;2594602;22;20159;-72
2023/11/12 03:34:29;;;;;;;0.30;0.30;;;;;;;8.54;100.00;100887.91;2594132;22;20162;-71
2023/11/12 03:35:29;;;;;;;0.30;0.30;;;;;;;7.94;100.00;100789.16;2594271;22;20379;-72
2023/11/12 03:36:31;;;;;;;2.73;0.40;;;;;;;8.55;100.00;100884.72;2593989;22;20155;-71
2023/11/12 03:37:31;;;;;;;0.70;0.40;;;;;;;8.45;100.00;100882.88;2594927;22;20232;-71
2023/11/12 03:38:31;;;;;;;0.60;0.40;;;;;;;8.50;100.00;100884.41;2594424;22;20421;-72
2023/11/12 03:39:32;;;;;;;0.33;0.20;;;;;;;7.88;100.00;100801.81;2594667;22;20234;-71
2023/11/12 03:40:32;;;;;;;0.30;0.30;;;;;;;8.55;100.00;100895.78;2594517;22;20257;-71
2023/11/12 03:41:33;;;;;;;1.07;0.50;;;;;;;8.60;100.00;100891.78;2594907;22;20653;-72
2023/11/12 03:42:33;;;;;;;0.47;0.33;;;;;;;8.61;100.00;100890.59;2593387;22;20232;-71
2023/11/12 03:43:34;;;;;;;0.30;0.30;;;;;;;8.53;100.00;100887.13;2593919;22;20161;-71
2023/11/12 03:44:35;;;;;;;0.53;0.40;;;;;;;8.52;100.00;100893.06;2594497;22;20738;-71
2023/11/12 03:45:35;;;;;;;0.30;0.30;;;;;;;8.54;100.00;100890.66;2594775;22;20462;-71
2023/11/12 03:46:36;;;;;;;0.47;0.30;;;;;;;8.56;100.00;100894.59;2594439;22;20162;-71
2023/11/12 03:47:36;;;;;;;0.47;0.40;;;;;;;8.61;100.00;100898.88;2595572;22;20151;-71
2023/11/12 03:48:37;;;;;;;0.50;0.37;;;;;;;8.61;100.00;100894.13;2595160;22;20150;-72
2023/11/12 03:49:42;;;;;;;0.33;0.30;;;;;;;8.61;100.00;100901.66;2595615;22;20589;-72
2023/11/12 03:50:42;;;;;;;0.77;0.40;;;;;;;8.63;100.00;100896.47;2595335;22;20169;-71
2023/11/12 03:51:42;;;;;;;0.30;0.30;;;;;;;8.63;100.00;100902.00;2594925;22;20374;-72
2023/11/12 03:52:43;;;;;;;0.43;0.33;;;;;;;8.65;100.00;100905.94;2595356;22;20504;-72
2023/11/12 03:53:44;;;;;;;0.60;0.20;;;;;;;8.64;100.00;100915.41;2594543;22;20154;-72
2023/11/12 03:54:45;;;;;;;0.40;0.30;;;;;;;8.61;100.00;100932.81;2595399;22;20185;-71
2023/11/12 03:55:45;;;;;;;0.60;0.37;;;;;;;8.68;100.00;100898.78;2595579;22;20444;-71
2023/11/12 03:56:46;;;;;;;0.50;0.40;;;;;;;8.71;100.00;100903.50;2594721;22;20148;-71
2023/11/12 03:57:46;;;;;;;0.30;0.30;;;;;;;8.68;100.00;100907.09;2594602;22;20497;-71
2023/11/12 03:58:47;;;;;;;0.53;0.40;;;;;;;8.70;100.00;100910.19;2595206;22;20229;-71
2023/11/12 03:59:51;;;;;;;0.60;0.40;;;;;;;8.64;100.00;100912.66;2595372;22;20156;-72
2023/11/12 04:00:51;;;;;;;0.33;0.30;;;;;;;8.59;100.00;100915.88;2595144;22;20155;-72
2023/11/12 04:01:52;;;;;;;0.47;0.30;;;;;;;8.61;100.00;100918.22;2594870;22;20442;-72
2023/11/12 04:02:53;;;;;;;0.73;0.33;;;;;;;8.58;100.00;100917.06;2595287;22;20157;-71
2023/11/12 04:03:53;;;;;;;0.57;0.30;;;;;;;8.55;100.00;100914.31;2594742;22;20181;-72
2023/11/12 04:04:54;;;;;;;0.40;0.30;;;;;;;8.55;100.00;100908.78;2594973;22;20154;-71
2023/11/12 04:05:54;;;;;;;0.53;0.40;;;;;;;8.54;100.00;100915.53;2595575;22;20179;-71
2023/11/12 04:06:54;;;;;;;0.30;0.20;;;;;;;8.53;100.00;100913.97;2594705;22;20154;-72
2023/11/12 04:07:55;;;;;;;1.10;0.50;;;;;;;8.51;100.00;100919.13;2595519;22;20165;-72
2023/11/12 04:08:55;;;;;;;0.60;0.30;;;;;;;8.50;100.00;100920.31;2595124;22;20222;-71
2023/11/12 04:09:56;;;;;;;0.33;0.30;;;;;;;8.53;100.00;100913.97;2595319;22;20169;-72
2023/11/12 04:10:56;;;;;;;0.50;0.23;;;;;;;8.51;100.00;100930.16;2595293;22;20154;-71
2023/11/12 04:11:57;;;;;;;0.37;0.30;;;;;;;8.57;100.00;100923.00;2594121;22;20151;-72
2023/11/12 04:12:58;;;;;;;0.60;0.30;;;;;;;8.54;100.00;100919.09;2595058;22;20165;-72
2023/11/12 04:13:58;;;;;;;0.40;0.30;;;;;;;8.49;100.00;100927.81;2595474;22;20150;-71
2023/11/12 04:14:59;;;;;;;0.10;0.10;;;;;;;8.29;100.00;100893.69;2594225;22;20762;-71
2023/11/12 04:15:59;;;;;;;0.60;0.30;;;;;;;8.36;100.00;100899.13;2595346;22;20496;-72
2023/11/12 04:17:00;;;;;;;0.50;0.30;;;;;;;8.49;100.00;100919.53;2594494;22;20147;-72
2023/11/12 04:18:00;;;;;;;0.70;0.30;;;;;;;8.57;100.00;100932.06;2595351;22;20151;-72
2023/11/12 04:19:02;;;;;;;0.57;0.40;;;;;;;8.23;100.00;100875.22;2595285;22;20154;-71
2023/11/12 04:20:06;;;;;;;0.47;0.40;;;;;;;8.56;100.00;100941.53;2595405;22;20153;-71
2023/11/12 04:21:08;;;;;;;0.40;0.30;;;;;;;8.52;100.00;100943.56;2595356;22;20374;-72
2023/11/12 04:22:08;;;;;;;0.33;0.30;;;;;;;8.51;100.00;100930.16;2594894;22;20373;-71
2023/11/12 04:23:09;;;;;;;0.57;0.40;;;;;;;8.47;100.00;100934.94;2581554;23;20410;-71
2023/11/12 04:24:10;;;;;;;0.40;0.20;;;;;;;8.50;100.00;100947.94;2581768;22;20144;-72
2023/11/12 04:25:10;;;;;;;1.03;0.50;;;;;;;8.48;100.00;100953.88;2594092;22;20962;-72
2023/11/12 04:26:11;;;;;;;0.40;0.30;;;;;;;8.47;100.00;100941.25;2594193;22;20192;-72
2023/11/12 04:27:12;;;;;;;0.30;0.30;;;;;;;8.47;100.00;100937.72;2594938;22;20149;-72
2023/11/12 04:28:12;;;;;;;0.30;0.30;;;;;;;8.48;100.00;100937.31;2595413;22;20143;-72
2023/11/12 04:29:13;;;;;;;0.70;0.40;;;;;;;8.45;100.00;100949.16;2595180;22;20147;-72
2023/11/12 04:30:13;;;;;;;0.67;0.40;;;;;;;8.45;100.00;100951.91;2595270;22;20153;-72
2023/11/12 04:31:14;;;;;;;1.50;0.60;;;;;;;8.48;100.00;100951.09;2595148;22;20157;-72
2023/11/12 04:32:14;;;;;;;1.70;0.60;;;;;;;8.43;100.00;100942.47;2594761;22;20182;-72
2023/11/12 04:33:15;;;;;;;2.20;0.50;;;;;;;8.36;100.00;100928.75;2595045;22;20158;-72
2023/11/12 04:34:15;;;;;;;0.30;0.30;;;;;;;8.41;100.00;100953.16;2581936;23;20265;-72
2023/11/12 04:35:19;;;;;;;1.13;0.43;;;;;;;8.43;100.00;100951.56;2581680;23;20151;-72
2023/11/12 04:36:19;;;;;;;0.27;0.27;;;;;;;8.11;100.00;100904.09;2593755;22;20502;-72
2023/11/12 04:37:19;;;;;;;0.63;0.40;;;;;;;8.42;100.00;100947.22;2595204;22;20411;-72
2023/11/12 04:38:20;;;;;;;0.40;0.30;;;;;;;8.41;100.00;100976.00;2595028;22;20250;-72
2023/11/12 04:39:21;;;;;;;4.00;0.47;;;;;;;8.42;100.00;100960.25;2595189;22;20158;-71
2023/11/12 04:40:22;;;;;;;0.60;0.40;;;;;;;8.39;100.00;100961.84;2594574;22;20198;-71
2023/11/12 04:41:25;;;;;;;0.33;0.33;;;;;;;8.06;100.00;100918.34;2595329;22;20234;-72
2023/11/12 04:42:26;;;;;;;0.47;0.40;;;;;;;8.39;100.00;100969.34;2594423;22;20413;-71
2023/11/12 04:43:27;;;;;;;0.80;0.73;;;;;;;8.35;100.00;100968.59;2595329;22;20388;-72
2023/11/12 04:44:27;;;;;;;0.77;0.50;;;;;;;8.31;100.00;100970.59;2594885;22;20471;-72